sensor_id;sensor_type;location;lat;lon;timestamp;temperature;humidity
49511;DHT22;35413;48.776;9.204;2022-07-25T00:00:04;26.70;55.40
49511;DHT22;35413;48.776;9.204;2022-07-25T00:02:30;26.70;55.20
49511;DHT22;35413;48.776;9.204;2022-07-25T00:04:55;26.70;55.20
49511;DHT22;35413;48.776;9.204;2022-07-25T00:07:21;26.70;55.20
49511;DHT22;35413;48.776;9.204;2022-07-25T00:09:47;26.70;55.20
49511;DHT22;35413;48.776;9.204;2022-07-25T00:12:12;26.60;55.00
49511;DHT22;35413;48.776;9.204;2022-07-25T00:14:38;26.60;54.90
49511;DHT22;35413;48.776;9.204;2022-07-25T00:17:04;26.60;54.90
49511;DHT22;35413;48.776;9.204;2022-07-25T00:19:29;26.60;54.90
49511;DHT22;35413;48.776;9.204;2022-07-25T00:21:55;26.60;54.70
49511;DHT22;35413;48.776;9.204;2022-07-25T00:24:20;26.60;54.70
49511;DHT22;35413;48.776;9.204;2022-07-25T00:26:46;26.50;54.90
49511;DHT22;35413;48.776;9.204;2022-07-25T00:29:12;26.50;55.00
49511;DHT22;35413;48.776;9.204;2022-07-25T00:31:37;26.50;55.10
49511;DHT22;35413;48.776;9.204;2022-07-25T00:34:03;26.40;55.00
49511;DHT22;35413;48.776;9.204;2022-07-25T00:36:28;26.50;55.10
49511;DHT22;35413;48.776;9.204;2022-07-25T00:38:54;26.50;55.20
49511;DHT22;35413;48.776;9.204;2022-07-25T00:41:20;26.40;55.20
49511;DHT22;35413;48.776;9.204;2022-07-25T00:43:45;26.40;55.20
49511;DHT22;35413;48.776;9.204;2022-07-25T00:46:15;26.40;55.10
49511;DHT22;35413;48.776;9.204;2022-07-25T00:48:41;26.50;55.10
49511;DHT22;35413;48.776;9.204;2022-07-25T00:51:08;26.40;55.00
49511;DHT22;35413;48.776;9.204;2022-07-25T00:53:35;26.50;54.90
49511;DHT22;35413;48.776;9.204;2022-07-25T00:56:01;26.50;55.00
49511;DHT22;35413;48.776;9.204;2022-07-25T00:58:26;26.50;54.80
49511;DHT22;35413;48.776;9.204;2022-07-25T01:00:52;26.40;54.70
49511;DHT22;35413;48.776;9.204;2022-07-25T01:03:18;26.40;54.90
49511;DHT22;35413;48.776;9.204;2022-07-25T01:05:43;26.40;54.80
49511;DHT22;35413;48.776;9.204;2022-07-25T01:08:09;26.40;54.90
49511;DHT22;35413;48.776;9.204;2022-07-25T01:10:35;26.40;55.00
49511;DHT22;35413;48.776;9.204;2022-07-25T01:13:02;26.30;54.90
49511;DHT22;35413;48.776;9.204;2022-07-25T01:15:28;26.30;55.00
49511;DHT22;35413;48.776;9.204;2022-07-25T01:17:54;26.30;55.10
49511;DHT22;35413;48.776;9.204;2022-07-25T01:20:22;26.30;55.20
49511;DHT22;35413;48.776;9.204;2022-07-25T01:22:48;26.30;55.20
49511;DHT22;35413;48.776;9.204;2022-07-25T01:25:14;26.20;55.20
49511;DHT22;35413;48.776;9.204;2022-07-25T01:27:41;26.20;55.30
49511;DHT22;35413;48.776;9.204;2022-07-25T01:30:09;26.20;55.40
49511;DHT22;35413;48.776;9.204;2022-07-25T01:32:35;26.20;55.50
49511;DHT22;35413;48.776;9.204;2022-07-25T01:35:02;26.20;55.70
49511;DHT22;35413;48.776;9.204;2022-07-25T01:37:27;26.20;55.70
49511;DHT22;35413;48.776;9.204;2022-07-25T01:39:53;26.20;55.50
49511;DHT22;35413;48.776;9.204;2022-07-25T01:42:19;26.20;55.30
49511;DHT22;35413;48.776;9.204;2022-07-25T01:44:44;26.20;55.20
49511;DHT22;35413;48.776;9.204;2022-07-25T01:47:10;26.20;55.10
49511;DHT22;35413;48.776;9.204;2022-07-25T01:49:35;26.20;55.10
49511;DHT22;35413;48.776;9.204;2022-07-25T01:52:01;26.10;55.20
49511;DHT22;35413;48.776;9.204;2022-07-25T01:54:27;26.10;55.30
49511;DHT22;35413;48.776;9.204;2022-07-25T01:56:52;26.20;55.30
49511;DHT22;35413;48.776;9.204;2022-07-25T01:59:18;26.20;55.10
49511;DHT22;35413;48.776;9.204;2022-07-25T02:01:44;26.20;55.00
49511;DHT22;35413;48.776;9.204;2022-07-25T02:04:09;26.10;55.00
49511;DHT22;35413;48.776;9.204;2022-07-25T02:06:35;26.10;55.10
49511;DHT22;35413;48.776;9.204;2022-07-25T02:09:02;26.10;55.10
49511;DHT22;35413;48.776;9.204;2022-07-25T02:11:28;26.10;55.00
49511;DHT22;35413;48.776;9.204;2022-07-25T02:13:54;26.10;55.00
49511;DHT22;35413;48.776;9.204;2022-07-25T02:16:19;26.00;55.20
49511;DHT22;35413;48.776;9.204;2022-07-25T02:18:45;26.00;55.20
49511;DHT22;35413;48.776;9.204;2022-07-25T02:21:10;26.00;55.20
49511;DHT22;35413;48.776;9.204;2022-07-25T02:23:36;26.00;55.30
49511;DHT22;35413;48.776;9.204;2022-07-25T02:26:03;26.00;55.20
49511;DHT22;35413;48.776;9.204;2022-07-25T02:28:28;26.00;55.30
49511;DHT22;35413;48.776;9.204;2022-07-25T02:30:54;26.00;55.40
49511;DHT22;35413;48.776;9.204;2022-07-25T02:33:20;25.90;55.50
49511;DHT22;35413;48.776;9.204;2022-07-25T02:35:46;25.90;55.50
49511;DHT22;35413;48.776;9.204;2022-07-25T02:38:12;25.90;55.50
49511;DHT22;35413;48.776;9.204;2022-07-25T02:40:47;25.90;55.50
49511;DHT22;35413;48.776;9.204;2022-07-25T02:43:13;25.90;55.50
49511;DHT22;35413;48.776;9.204;2022-07-25T02:45:39;25.90;55.60
49511;DHT22;35413;48.776;9.204;2022-07-25T02:48:05;25.90;55.70
49511;DHT22;35413;48.776;9.204;2022-07-25T02:50:30;25.80;55.80
49511;DHT22;35413;48.776;9.204;2022-07-25T02:52:56;25.80;55.90
49511;DHT22;35413;48.776;9.204;2022-07-25T02:55:22;25.80;56.00
49511;DHT22;35413;48.776;9.204;2022-07-25T02:57:47;25.80;56.10
49511;DHT22;35413;48.776;9.204;2022-07-25T03:00:14;25.80;56.20
49511;DHT22;35413;48.776;9.204;2022-07-25T03:02:40;25.80;56.30
49511;DHT22;35413;48.776;9.204;2022-07-25T03:05:07;25.80;57.10
49511;DHT22;35413;48.776;9.204;2022-07-25T03:07:34;25.80;56.50
49511;DHT22;35413;48.776;9.204;2022-07-25T03:09:59;25.80;56.50
49511;DHT22;35413;48.776;9.204;2022-07-25T03:12:25;25.80;56.50
49511;DHT22;35413;48.776;9.204;2022-07-25T03:14:50;25.80;56.50
49511;DHT22;35413;48.776;9.204;2022-07-25T03:17:16;25.80;56.50
49511;DHT22;35413;48.776;9.204;2022-07-25T03:19:42;25.80;56.30
49511;DHT22;35413;48.776;9.204;2022-07-25T03:22:08;25.80;55.80
49511;DHT22;35413;48.776;9.204;2022-07-25T03:24:33;25.80;55.90
49511;DHT22;35413;48.776;9.204;2022-07-25T03:26:59;25.70;56.10
49511;DHT22;35413;48.776;9.204;2022-07-25T03:29:24;25.70;56.00
49511;DHT22;35413;48.776;9.204;2022-07-25T03:31:50;25.70;56.10
49511;DHT22;35413;48.776;9.204;2022-07-25T03:34:16;25.70;56.20
49511;DHT22;35413;48.776;9.204;2022-07-25T03:36:41;25.70;55.90
49511;DHT22;35413;48.776;9.204;2022-07-25T03:39:07;25.70;55.80
49511;DHT22;35413;48.776;9.204;2022-07-25T03:41:32;25.70;55.80
49511;DHT22;35413;48.776;9.204;2022-07-25T03:43:58;25.60;55.60
49511;DHT22;35413;48.776;9.204;2022-07-25T03:46:23;25.60;55.70
49511;DHT22;35413;48.776;9.204;2022-07-25T03:48:49;25.60;55.50
49511;DHT22;35413;48.776;9.204;2022-07-25T03:51:15;25.60;55.50
49511;DHT22;35413;48.776;9.204;2022-07-25T03:53:40;25.60;55.50
49511;DHT22;35413;48.776;9.204;2022-07-25T03:56:35;25.70;55.50
49511;DHT22;35413;48.776;9.204;2022-07-25T03:59:01;25.70;55.40
49511;DHT22;35413;48.776;9.204;2022-07-25T04:01:27;25.70;55.20
49511;DHT22;35413;48.776;9.204;2022-07-25T04:03:52;25.60;55.20
49511;DHT22;35413;48.776;9.204;2022-07-25T04:06:18;25.60;55.10
49511;DHT22;35413;48.776;9.204;2022-07-25T04:08:44;25.60;55.20
49511;DHT22;35413;48.776;9.204;2022-07-25T04:11:10;25.60;55.40
49511;DHT22;35413;48.776;9.204;2022-07-25T04:13:35;25.60;55.40
49511;DHT22;35413;48.776;9.204;2022-07-25T04:16:01;25.60;55.50
49511;DHT22;35413;48.776;9.204;2022-07-25T04:18:27;25.60;55.50
49511;DHT22;35413;48.776;9.204;2022-07-25T04:20:53;25.60;55.50
49511;DHT22;35413;48.776;9.204;2022-07-25T04:23:18;25.60;55.60
49511;DHT22;35413;48.776;9.204;2022-07-25T04:25:44;25.60;55.70
49511;DHT22;35413;48.776;9.204;2022-07-25T04:28:09;25.60;55.60
49511;DHT22;35413;48.776;9.204;2022-07-25T04:30:35;25.60;55.50
49511;DHT22;35413;48.776;9.204;2022-07-25T04:33:01;25.60;55.50
49511;DHT22;35413;48.776;9.204;2022-07-25T04:35:27;25.60;55.40
49511;DHT22;35413;48.776;9.204;2022-07-25T04:37:52;25.60;55.50
49511;DHT22;35413;48.776;9.204;2022-07-25T04:40:18;25.60;55.40
49511;DHT22;35413;48.776;9.204;2022-07-25T04:42:43;25.60;55.30
49511;DHT22;35413;48.776;9.204;2022-07-25T04:45:09;25.60;55.30
49511;DHT22;35413;48.776;9.204;2022-07-25T04:47:35;25.60;55.40
49511;DHT22;35413;48.776;9.204;2022-07-25T04:50:01;25.60;55.50
49511;DHT22;35413;48.776;9.204;2022-07-25T04:52:26;25.60;55.60
49511;DHT22;35413;48.776;9.204;2022-07-25T04:54:52;25.60;55.70
49511;DHT22;35413;48.776;9.204;2022-07-25T04:57:18;25.60;55.70
49511;DHT22;35413;48.776;9.204;2022-07-25T04:59:43;25.60;55.70
49511;DHT22;35413;48.776;9.204;2022-07-25T05:02:09;25.60;55.90
49511;DHT22;35413;48.776;9.204;2022-07-25T05:04:34;25.60;55.90
49511;DHT22;35413;48.776;9.204;2022-07-25T05:07:00;25.60;55.70
49511;DHT22;35413;48.776;9.204;2022-07-25T05:09:26;25.60;55.50
49511;DHT22;35413;48.776;9.204;2022-07-25T05:11:52;25.60;55.70
49511;DHT22;35413;48.776;9.204;2022-07-25T05:14:18;25.60;55.60
49511;DHT22;35413;48.776;9.204;2022-07-25T05:16:44;25.70;55.70
49511;DHT22;35413;48.776;9.204;2022-07-25T05:19:10;25.70;55.80
49511;DHT22;35413;48.776;9.204;2022-07-25T05:21:36;25.70;55.80
49511;DHT22;35413;48.776;9.204;2022-07-25T05:24:03;25.70;55.60
49511;DHT22;35413;48.776;9.204;2022-07-25T05:26:28;25.70;55.70
49511;DHT22;35413;48.776;9.204;2022-07-25T05:28:54;25.80;56.00
49511;DHT22;35413;48.776;9.204;2022-07-25T05:31:20;25.80;56.00
49511;DHT22;35413;48.776;9.204;2022-07-25T05:33:45;25.80;56.10
49511;DHT22;35413;48.776;9.204;2022-07-25T05:36:11;25.80;56.30
49511;DHT22;35413;48.776;9.204;2022-07-25T05:38:36;25.80;56.30
49511;DHT22;35413;48.776;9.204;2022-07-25T05:41:03;25.80;56.20
49511;DHT22;35413;48.776;9.204;2022-07-25T05:43:28;25.80;56.20
49511;DHT22;35413;48.776;9.204;2022-07-25T05:46:03;25.80;56.20
49511;DHT22;35413;48.776;9.204;2022-07-25T05:48:29;25.80;56.20
49511;DHT22;35413;48.776;9.204;2022-07-25T05:50:55;25.90;56.20
49511;DHT22;35413;48.776;9.204;2022-07-25T05:53:21;26.00;56.30
49511;DHT22;35413;48.776;9.204;2022-07-25T05:55:47;26.00;56.40
49511;DHT22;35413;48.776;9.204;2022-07-25T05:58:13;26.00;56.50
49511;DHT22;35413;48.776;9.204;2022-07-25T06:00:39;26.00;56.60
49511;DHT22;35413;48.776;9.204;2022-07-25T06:03:04;26.00;56.70
49511;DHT22;35413;48.776;9.204;2022-07-25T06:05:30;26.10;56.60
49511;DHT22;35413;48.776;9.204;2022-07-25T06:07:56;26.10;56.60
49511;DHT22;35413;48.776;9.204;2022-07-25T06:10:22;26.10;56.60
49511;DHT22;35413;48.776;9.204;2022-07-25T06:12:48;26.10;56.70
49511;DHT22;35413;48.776;9.204;2022-07-25T06:15:13;26.20;56.70
49511;DHT22;35413;48.776;9.204;2022-07-25T06:17:39;26.30;56.30
49511;DHT22;35413;48.776;9.204;2022-07-25T06:20:05;26.40;56.30
49511;DHT22;35413;48.776;9.204;2022-07-25T06:22:30;26.40;56.20
49511;DHT22;35413;48.776;9.204;2022-07-25T06:24:56;26.50;56.20
49511;DHT22;35413;48.776;9.204;2022-07-25T06:27:22;26.50;56.10
49511;DHT22;35413;48.776;9.204;2022-07-25T06:29:48;26.60;56.10
49511;DHT22;35413;48.776;9.204;2022-07-25T06:32:13;26.60;56.10
49511;DHT22;35413;48.776;9.204;2022-07-25T06:34:39;26.60;56.10
49511;DHT22;35413;48.776;9.204;2022-07-25T06:37:05;26.60;56.00
49511;DHT22;35413;48.776;9.204;2022-07-25T06:39:30;26.70;56.00
49511;DHT22;35413;48.776;9.204;2022-07-25T06:41:56;26.60;55.80
49511;DHT22;35413;48.776;9.204;2022-07-25T06:44:24;26.60;55.80
49511;DHT22;35413;48.776;9.204;2022-07-25T06:46:50;26.70;55.80
49511;DHT22;35413;48.776;9.204;2022-07-25T06:49:15;26.70;55.70
49511;DHT22;35413;48.776;9.204;2022-07-25T06:51:42;26.80;56.20
49511;DHT22;35413;48.776;9.204;2022-07-25T06:54:07;26.80;55.40
49511;DHT22;35413;48.776;9.204;2022-07-25T06:56:33;26.80;55.70
49511;DHT22;35413;48.776;9.204;2022-07-25T06:58:59;26.90;55.60
49511;DHT22;35413;48.776;9.204;2022-07-25T07:01:25;26.90;55.60
49511;DHT22;35413;48.776;9.204;2022-07-25T07:03:50;26.90;55.70
49511;DHT22;35413;48.776;9.204;2022-07-25T07:06:16;27.00;55.70
49511;DHT22;35413;48.776;9.204;2022-07-25T07:08:42;27.00;55.80
49511;DHT22;35413;48.776;9.204;2022-07-25T07:11:07;27.00;55.80
49511;DHT22;35413;48.776;9.204;2022-07-25T07:13:33;27.00;55.70
49511;DHT22;35413;48.776;9.204;2022-07-25T07:15:59;27.00;55.80
49511;DHT22;35413;48.776;9.204;2022-07-25T07:18:25;27.00;55.80
49511;DHT22;35413;48.776;9.204;2022-07-25T07:20:50;27.00;55.80
49511;DHT22;35413;48.776;9.204;2022-07-25T07:23:17;27.00;55.80
49511;DHT22;35413;48.776;9.204;2022-07-25T07:25:43;27.00;56.00
49511;DHT22;35413;48.776;9.204;2022-07-25T07:28:10;27.00;55.80
49511;DHT22;35413;48.776;9.204;2022-07-25T07:30:36;27.00;55.70
49511;DHT22;35413;48.776;9.204;2022-07-25T07:33:02;27.00;55.80
49511;DHT22;35413;48.776;9.204;2022-07-25T07:35:27;27.10;55.80
49511;DHT22;35413;48.776;9.204;2022-07-25T07:37:53;27.10;55.70
49511;DHT22;35413;48.776;9.204;2022-07-25T07:40:20;27.10;55.70
49511;DHT22;35413;48.776;9.204;2022-07-25T07:42:47;27.10;55.80
49511;DHT22;35413;48.776;9.204;2022-07-25T07:45:16;27.10;55.70
49511;DHT22;35413;48.776;9.204;2022-07-25T07:47:42;27.10;55.70
49511;DHT22;35413;48.776;9.204;2022-07-25T07:50:09;27.10;55.70
49511;DHT22;35413;48.776;9.204;2022-07-25T07:52:35;27.10;55.80
49511;DHT22;35413;48.776;9.204;2022-07-25T07:55:01;27.10;55.70
49511;DHT22;35413;48.776;9.204;2022-07-25T07:57:45;27.10;55.70
49511;DHT22;35413;48.776;9.204;2022-07-25T08:00:11;27.10;55.60
49511;DHT22;35413;48.776;9.204;2022-07-25T08:02:44;27.10;55.60
49511;DHT22;35413;48.776;9.204;2022-07-25T08:05:11;27.20;55.60
49511;DHT22;35413;48.776;9.204;2022-07-25T08:07:37;27.10;55.60
49511;DHT22;35413;48.776;9.204;2022-07-25T08:10:03;27.20;55.70
49511;DHT22;35413;48.776;9.204;2022-07-25T08:12:29;27.20;55.60
49511;DHT22;35413;48.776;9.204;2022-07-25T08:14:55;27.20;55.70
49511;DHT22;35413;48.776;9.204;2022-07-25T08:17:20;27.20;55.60
49511;DHT22;35413;48.776;9.204;2022-07-25T08:19:46;27.20;55.50
49511;DHT22;35413;48.776;9.204;2022-07-25T08:22:11;27.20;55.40
49511;DHT22;35413;48.776;9.204;2022-07-25T08:24:37;27.20;55.50
49511;DHT22;35413;48.776;9.204;2022-07-25T08:27:02;27.20;55.50
49511;DHT22;35413;48.776;9.204;2022-07-25T08:29:28;27.20;55.50
49511;DHT22;35413;48.776;9.204;2022-07-25T08:31:54;27.20;55.50
49511;DHT22;35413;48.776;9.204;2022-07-25T08:34:19;27.30;55.40
49511;DHT22;35413;48.776;9.204;2022-07-25T08:36:47;27.30;55.50
49511;DHT22;35413;48.776;9.204;2022-07-25T08:39:12;27.20;55.40
49511;DHT22;35413;48.776;9.204;2022-07-25T08:41:42;27.30;55.50
49511;DHT22;35413;48.776;9.204;2022-07-25T08:44:08;27.30;55.50
49511;DHT22;35413;48.776;9.204;2022-07-25T08:46:34;27.30;55.30
49511;DHT22;35413;48.776;9.204;2022-07-25T08:49:01;27.30;55.30
49511;DHT22;35413;48.776;9.204;2022-07-25T08:51:27;27.30;55.10
49511;DHT22;35413;48.776;9.204;2022-07-25T08:53:54;27.30;55.20
49511;DHT22;35413;48.776;9.204;2022-07-25T08:56:19;27.30;55.30
49511;DHT22;35413;48.776;9.204;2022-07-25T08:58:45;27.30;55.20
49511;DHT22;35413;48.776;9.204;2022-07-25T09:01:12;27.30;55.20
49511;DHT22;35413;48.776;9.204;2022-07-25T09:03:38;27.30;55.10
49511;DHT22;35413;48.776;9.204;2022-07-25T09:06:17;27.30;55.00
49511;DHT22;35413;48.776;9.204;2022-07-25T09:08:54;27.30;54.90
49511;DHT22;35413;48.776;9.204;2022-07-25T09:14:13;27.30;54.70
49511;DHT22;35413;48.776;9.204;2022-07-25T09:16:41;27.40;54.90
49511;DHT22;35413;48.776;9.204;2022-07-25T09:19:11;27.40;54.80
49511;DHT22;35413;48.776;9.204;2022-07-25T09:21:39;27.30;54.70
49511;DHT22;35413;48.776;9.204;2022-07-25T09:24:14;27.40;55.10
49511;DHT22;35413;48.776;9.204;2022-07-25T09:26:51;27.40;54.20
49511;DHT22;35413;48.776;9.204;2022-07-25T09:29:23;27.40;54.60
49511;DHT22;35413;48.776;9.204;2022-07-25T09:31:49;27.40;54.50
49511;DHT22;35413;48.776;9.204;2022-07-25T09:34:36;27.40;53.90
49511;DHT22;35413;48.776;9.204;2022-07-25T09:37:07;27.40;54.10
49511;DHT22;35413;48.776;9.204;2022-07-25T09:39:44;27.40;54.20
49511;DHT22;35413;48.776;9.204;2022-07-25T09:42:21;27.40;54.30
49511;DHT22;35413;48.776;9.204;2022-07-25T09:47:30;27.40;54.00
49511;DHT22;35413;48.776;9.204;2022-07-25T09:49:56;27.40;53.90
49511;DHT22;35413;48.776;9.204;2022-07-25T09:52:22;27.40;54.00
49511;DHT22;35413;48.776;9.204;2022-07-25T09:54:48;27.40;53.90
49511;DHT22;35413;48.776;9.204;2022-07-25T09:57:14;27.40;53.30
49511;DHT22;35413;48.776;9.204;2022-07-25T09:59:41;27.40;53.30
49511;DHT22;35413;48.776;9.204;2022-07-25T10:02:07;27.40;53.30
49511;DHT22;35413;48.776;9.204;2022-07-25T10:04:44;27.40;53.30
49511;DHT22;35413;48.776;9.204;2022-07-25T10:07:11;27.40;53.00
49511;DHT22;35413;48.776;9.204;2022-07-25T10:09:47;27.40;53.40
49511;DHT22;35413;48.776;9.204;2022-07-25T10:12:17;27.40;53.00
49511;DHT22;35413;48.776;9.204;2022-07-25T10:15:09;27.40;53.20
49511;DHT22;35413;48.776;9.204;2022-07-25T10:17:36;27.40;53.40
49511;DHT22;35413;48.776;9.204;2022-07-25T10:20:04;27.40;53.20
49511;DHT22;35413;48.776;9.204;2022-07-25T10:22:41;27.40;53.20
49511;DHT22;35413;48.776;9.204;2022-07-25T10:25:13;27.40;53.30
49511;DHT22;35413;48.776;9.204;2022-07-25T10:27:43;27.50;53.90
49511;DHT22;35413;48.776;9.204;2022-07-25T10:30:27;27.40;54.30
49511;DHT22;35413;48.776;9.204;2022-07-25T10:32:58;27.40;54.50
49511;DHT22;35413;48.776;9.204;2022-07-25T10:35:25;27.50;54.80
49511;DHT22;35413;48.776;9.204;2022-07-25T10:37:53;27.50;54.90
49511;DHT22;35413;48.776;9.204;2022-07-25T10:40:47;27.50;54.70
49511;DHT22;35413;48.776;9.204;2022-07-25T10:45:52;27.50;54.60
49511;DHT22;35413;48.776;9.204;2022-07-25T10:48:22;27.50;54.90
49511;DHT22;35413;48.776;9.204;2022-07-25T10:50:50;27.50;54.80
49511;DHT22;35413;48.776;9.204;2022-07-25T10:56:19;27.50;54.90
49511;DHT22;35413;48.776;9.204;2022-07-25T10:58:46;27.50;55.00
49511;DHT22;35413;48.776;9.204;2022-07-25T11:01:13;27.50;55.30
49511;DHT22;35413;48.776;9.204;2022-07-25T11:03:40;27.50;54.90
49511;DHT22;35413;48.776;9.204;2022-07-25T11:06:12;27.50;55.20
49511;DHT22;35413;48.776;9.204;2022-07-25T11:08:40;27.50;55.30
49511;DHT22;35413;48.776;9.204;2022-07-25T11:11:06;27.50;55.20
49511;DHT22;35413;48.776;9.204;2022-07-25T11:13:37;27.50;55.20
49511;DHT22;35413;48.776;9.204;2022-07-25T11:16:03;27.50;55.30
49511;DHT22;35413;48.776;9.204;2022-07-25T11:18:35;27.50;55.40
49511;DHT22;35413;48.776;9.204;2022-07-25T11:21:03;27.50;55.40
49511;DHT22;35413;48.776;9.204;2022-07-25T11:23:29;27.50;55.60
49511;DHT22;35413;48.776;9.204;2022-07-25T11:26:09;27.50;55.30
49511;DHT22;35413;48.776;9.204;2022-07-25T11:28:46;27.50;55.40
49511;DHT22;35413;48.776;9.204;2022-07-25T11:31:13;27.50;55.40
49511;DHT22;35413;48.776;9.204;2022-07-25T11:33:41;27.50;55.30
49511;DHT22;35413;48.776;9.204;2022-07-25T11:36:08;27.50;55.40
49511;DHT22;35413;48.776;9.204;2022-07-25T11:38:35;27.50;55.50
49511;DHT22;35413;48.776;9.204;2022-07-25T11:41:01;27.50;55.40
49511;DHT22;35413;48.776;9.204;2022-07-25T11:43:27;27.50;55.50
49511;DHT22;35413;48.776;9.204;2022-07-25T11:46:09;27.50;55.50
49511;DHT22;35413;48.776;9.204;2022-07-25T11:48:37;27.50;55.50
49511;DHT22;35413;48.776;9.204;2022-07-25T11:53:49;27.60;55.60
49511;DHT22;35413;48.776;9.204;2022-07-25T11:56:19;27.60;55.60
49511;DHT22;35413;48.776;9.204;2022-07-25T11:58:58;27.60;55.50
49511;DHT22;35413;48.776;9.204;2022-07-25T12:01:35;27.60;55.50
49511;DHT22;35413;48.776;9.204;2022-07-25T12:06:43;27.50;55.50
49511;DHT22;35413;48.776;9.204;2022-07-25T12:09:11;27.50;55.30
49511;DHT22;35413;48.776;9.204;2022-07-25T12:11:37;27.50;55.30
49511;DHT22;35413;48.776;9.204;2022-07-25T12:14:03;27.50;55.40
49511;DHT22;35413;48.776;9.204;2022-07-25T12:16:31;27.60;55.50
49511;DHT22;35413;48.776;9.204;2022-07-25T12:18:57;27.50;55.70
49511;DHT22;35413;48.776;9.204;2022-07-25T12:21:23;27.50;55.70
49511;DHT22;35413;48.776;9.204;2022-07-25T12:23:49;27.60;55.90
49511;DHT22;35413;48.776;9.204;2022-07-25T12:26:14;27.60;55.90
49511;DHT22;35413;48.776;9.204;2022-07-25T12:28:40;27.60;55.80
49511;DHT22;35413;48.776;9.204;2022-07-25T12:31:06;27.50;55.70
49511;DHT22;35413;48.776;9.204;2022-07-25T12:33:31;27.50;55.70
49511;DHT22;35413;48.776;9.204;2022-07-25T12:35:58;27.60;55.90
49511;DHT22;35413;48.776;9.204;2022-07-25T12:38:25;27.60;55.80
49511;DHT22;35413;48.776;9.204;2022-07-25T12:40:50;27.60;55.70
49511;DHT22;35413;48.776;9.204;2022-07-25T12:43:16;27.60;55.80
49511;DHT22;35413;48.776;9.204;2022-07-25T12:45:42;27.60;55.70
49511;DHT22;35413;48.776;9.204;2022-07-25T12:48:09;27.60;56.00
49511;DHT22;35413;48.776;9.204;2022-07-25T12:50:34;27.60;55.70
49511;DHT22;35413;48.776;9.204;2022-07-25T12:53:00;27.60;55.80
49511;DHT22;35413;48.776;9.204;2022-07-25T12:55:26;27.60;55.80
49511;DHT22;35413;48.776;9.204;2022-07-25T12:57:52;27.60;55.80
49511;DHT22;35413;48.776;9.204;2022-07-25T13:00:20;27.60;55.90
49511;DHT22;35413;48.776;9.204;2022-07-25T13:02:46;27.60;55.90
49511;DHT22;35413;48.776;9.204;2022-07-25T13:05:13;27.60;55.80
49511;DHT22;35413;48.776;9.204;2022-07-25T13:07:39;27.60;56.10
49511;DHT22;35413;48.776;9.204;2022-07-25T13:10:05;27.60;55.80
49511;DHT22;35413;48.776;9.204;2022-07-25T13:12:31;27.60;55.90
49511;DHT22;35413;48.776;9.204;2022-07-25T13:14:57;27.60;55.90
49511;DHT22;35413;48.776;9.204;2022-07-25T13:17:22;27.60;56.00
49511;DHT22;35413;48.776;9.204;2022-07-25T13:19:48;27.60;56.00
49511;DHT22;35413;48.776;9.204;2022-07-25T13:22:14;27.60;55.90
49511;DHT22;35413;48.776;9.204;2022-07-25T13:24:39;27.60;55.90
49511;DHT22;35413;48.776;9.204;2022-07-25T13:27:06;27.60;55.90
49511;DHT22;35413;48.776;9.204;2022-07-25T13:29:32;27.60;55.80
49511;DHT22;35413;48.776;9.204;2022-07-25T13:31:58;27.50;55.70
49511;DHT22;35413;48.776;9.204;2022-07-25T13:34:24;27.60;55.80
49511;DHT22;35413;48.776;9.204;2022-07-25T13:36:49;27.60;56.30
49511;DHT22;35413;48.776;9.204;2022-07-25T13:39:15;27.60;55.70
49511;DHT22;35413;48.776;9.204;2022-07-25T13:41:41;27.60;55.70
49511;DHT22;35413;48.776;9.204;2022-07-25T13:44:06;27.60;55.70
49511;DHT22;35413;48.776;9.204;2022-07-25T13:46:32;27.60;55.70
49511;DHT22;35413;48.776;9.204;2022-07-25T13:48:58;27.60;55.70
49511;DHT22;35413;48.776;9.204;2022-07-25T13:51:24;27.60;55.60
49511;DHT22;35413;48.776;9.204;2022-07-25T13:53:50;27.60;55.50
49511;DHT22;35413;48.776;9.204;2022-07-25T13:56:15;27.60;55.50
49511;DHT22;35413;48.776;9.204;2022-07-25T13:58:42;27.60;55.50
49511;DHT22;35413;48.776;9.204;2022-07-25T14:01:08;27.60;55.40
49511;DHT22;35413;48.776;9.204;2022-07-25T14:03:34;27.60;55.40
49511;DHT22;35413;48.776;9.204;2022-07-25T14:06:02;27.50;55.30
49511;DHT22;35413;48.776;9.204;2022-07-25T14:08:28;27.50;55.30
49511;DHT22;35413;48.776;9.204;2022-07-25T14:10:54;27.50;55.30
49511;DHT22;35413;48.776;9.204;2022-07-25T14:13:19;27.60;55.30
49511;DHT22;35413;48.776;9.204;2022-07-25T14:15:45;27.50;55.20
49511;DHT22;35413;48.776;9.204;2022-07-25T14:18:10;27.60;55.20
49511;DHT22;35413;48.776;9.204;2022-07-25T14:20:36;27.60;55.30
49511;DHT22;35413;48.776;9.204;2022-07-25T14:23:02;27.60;55.30
49511;DHT22;35413;48.776;9.204;2022-07-25T14:25:27;27.60;55.20
49511;DHT22;35413;48.776;9.204;2022-07-25T14:27:53;27.60;55.80
49511;DHT22;35413;48.776;9.204;2022-07-25T14:30:19;27.50;55.10
49511;DHT22;35413;48.776;9.204;2022-07-25T14:32:44;27.60;55.10
49511;DHT22;35413;48.776;9.204;2022-07-25T14:35:11;27.60;55.10
49511;DHT22;35413;48.776;9.204;2022-07-25T14:37:37;27.60;55.10
49511;DHT22;35413;48.776;9.204;2022-07-25T14:40:04;27.50;55.00
49511;DHT22;35413;48.776;9.204;2022-07-25T14:42:30;27.60;55.00
49511;DHT22;35413;48.776;9.204;2022-07-25T14:44:56;27.50;54.80
49511;DHT22;35413;48.776;9.204;2022-07-25T14:47:21;27.60;55.00
49511;DHT22;35413;48.776;9.204;2022-07-25T14:49:47;27.60;54.90
49511;DHT22;35413;48.776;9.204;2022-07-25T14:52:13;27.60;54.90
49511;DHT22;35413;48.776;9.204;2022-07-25T14:54:40;27.60;54.90
49511;DHT22;35413;48.776;9.204;2022-07-25T14:57:07;27.60;54.90
49511;DHT22;35413;48.776;9.204;2022-07-25T14:59:33;27.50;54.80
49511;DHT22;35413;48.776;9.204;2022-07-25T15:01:58;27.50;54.80
49511;DHT22;35413;48.776;9.204;2022-07-25T15:04:24;27.60;54.90
49511;DHT22;35413;48.776;9.204;2022-07-25T15:06:50;27.60;54.90
49511;DHT22;35413;48.776;9.204;2022-07-25T15:09:18;27.60;54.80
49511;DHT22;35413;48.776;9.204;2022-07-25T15:11:43;27.50;54.70
49511;DHT22;35413;48.776;9.204;2022-07-25T15:14:09;27.50;54.70
49511;DHT22;35413;48.776;9.204;2022-07-25T15:16:35;27.60;54.80
49511;DHT22;35413;48.776;9.204;2022-07-25T15:19:01;27.50;54.70
49511;DHT22;35413;48.776;9.204;2022-07-25T15:21:27;27.60;54.70
49511;DHT22;35413;48.776;9.204;2022-07-25T15:23:52;27.60;54.80
49511;DHT22;35413;48.776;9.204;2022-07-25T15:26:19;27.60;54.70
49511;DHT22;35413;48.776;9.204;2022-07-25T15:28:45;27.60;54.70
49511;DHT22;35413;48.776;9.204;2022-07-25T15:31:11;27.60;54.70
49511;DHT22;35413;48.776;9.204;2022-07-25T15:33:36;27.60;54.60
49511;DHT22;35413;48.776;9.204;2022-07-25T15:36:02;27.60;55.10
49511;DHT22;35413;48.776;9.204;2022-07-25T15:38:29;27.60;54.40
49511;DHT22;35413;48.776;9.204;2022-07-25T15:40:55;27.60;54.20
49511;DHT22;35413;48.776;9.204;2022-07-25T15:43:21;27.60;54.30